RJST(METAR)
10/21 05:00
METAR RJST 202000Z 34006KT 9999 FEW030 07/05 Q1027 RMK 1CU030 A3035=
戻る
トップページへ戻る
IMOC Co,.Ltd.